Time;durP1;ratioP1;P1;durP2;ratioP2;P2;SDS_P1;SDS_P2;PMS_P1;PMS_P2;Temp;Humidity;BMP_temperature;BMP_pressure;BME280_temperature;BME280_humidity;BME280_pressure;Samples;Min_cycle;Max_cycle;Signal;HPM_P1;HPM_P2
2022/06/19 00:01:24;;;;;;;1999.90;999.90;;;;;;;21.82;100.00;95109.66;5115602;28;20215;-50
2022/06/19 00:03:54;;;;;;;1999.90;999.90;;;;;;;21.79;100.00;95101.53;5098625;28;20257;-53
2022/06/19 00:06:19;;;;;;;1999.90;999.90;;;;;;;21.66;100.00;95101.81;5098519;28;20183;-55
2022/06/19 00:08:48;;;;;;;1999.90;999.90;;;;;;;21.55;100.00;95095.28;5098606;28;20184;-49
2022/06/19 00:11:16;;;;;;;1999.90;999.90;;;;;;;21.49;100.00;95086.88;5115441;28;20186;-60
2022/06/19 00:13:42;;;;;;;1999.90;999.90;;;;;;;21.40;100.00;95075.88;5098212;28;20179;-60
2022/06/19 00:16:08;;;;;;;1999.90;999.90;;;;;;;21.26;100.00;95076.66;5098412;28;20191;-52
2022/06/19 00:18:34;;;;;;;1999.90;999.90;;;;;;;21.18;100.00;95067.19;5098149;28;20225;-54
2022/06/19 00:21:00;;;;;;;1999.90;999.90;;;;;;;21.14;100.00;95058.28;5114746;28;20191;-53
2022/06/19 00:23:25;;;;;;;1999.90;999.90;;;;;;;21.04;100.00;95050.50;5114968;28;20184;-54
2022/06/19 00:25:51;;;;;;;1999.90;999.90;;;;;;;21.02;100.00;95053.75;5114617;28;20180;-52
2022/06/19 00:28:16;;;;;;;1999.90;999.90;;;;;;;21.10;100.00;95043.81;5115582;28;20204;-53
2022/06/19 00:30:41;;;;;;;1999.90;999.90;;;;;;;21.09;100.00;95024.84;5114860;28;20282;-67
2022/06/19 00:33:07;;;;;;;1999.90;999.90;;;;;;;21.08;100.00;95024.06;5114883;28;20221;-54
2022/06/19 00:35:32;;;;;;;1999.90;999.90;;;;;;;21.06;100.00;95025.81;5114811;28;20191;-53
2022/06/19 00:37:58;;;;;;;1999.90;999.90;;;;;;;21.14;100.00;95030.50;5098461;28;20187;-53
2022/06/19 00:40:26;;;;;;;1999.90;999.90;;;;;;;21.22;100.00;95028.84;5098013;28;20188;-51
2022/06/19 00:42:52;;;;;;;1999.90;999.90;;;;;;;21.31;100.00;95017.63;5097711;28;20184;-53
2022/06/19 00:45:35;;;;;;;1999.90;999.90;;;;;;;21.39;100.00;95018.00;5113865;28;20194;-53
2022/06/19 00:48:09;;;;;;;1999.90;999.90;;;;;;;21.38;100.00;95006.09;5115145;28;20211;-53
2022/06/19 00:50:36;;;;;;;1999.90;999.90;;;;;;;21.50;100.00;94993.16;5098139;28;20308;-67
2022/06/19 00:53:05;;;;;;;1999.90;999.90;;;;;;;21.52;100.00;94985.84;5114992;28;20187;-67
2022/06/19 00:55:36;;;;;;;1999.90;999.90;;;;;;;21.58;100.00;94980.38;5114556;28;20282;-67
2022/06/19 00:58:11;;;;;;;1999.90;999.90;;;;;;;21.59;100.00;94982.66;5098006;28;20212;-67
2022/06/19 01:00:38;;;;;;;1999.90;999.90;;;;;;;21.59;100.00;94985.44;5097483;28;20290;-67
2022/06/19 01:03:09;;;;;;;1999.90;999.90;;;;;;;21.56;100.00;94980.09;5114398;28;20208;-66
2022/06/19 01:05:36;;;;;;;1999.90;999.90;;;;;;;21.59;100.00;94985.44;5097676;28;20195;-66
2022/06/19 01:08:02;;;;;;;1999.90;999.90;;;;;;;21.50;100.00;94987.59;5114032;28;20294;-58
2022/06/19 01:10:31;;;;;;;1999.90;999.90;;;;;;;21.42;100.00;94986.47;5097407;28;20191;-69
2022/06/19 01:12:57;;;;;;;1999.90;999.90;;;;;;;21.32;100.00;94993.38;5097545;28;20297;-68
2022/06/19 01:15:25;;;;;;;1999.90;999.90;;;;;;;21.09;100.00;94985.97;5114185;28;20213;-69
2022/06/19 01:17:55;;;;;;;1999.90;999.90;;;;;;;20.99;100.00;94988.09;5114009;28;20190;-69
2022/06/19 01:20:22;;;;;;;1999.90;999.90;;;;;;;20.89;100.00;94983.84;5114298;28;20243;-68
2022/06/19 01:22:56;;;;;;;1999.90;999.90;;;;;;;20.81;100.00;94981.94;5096865;28;20187;-68
2022/06/19 01:25:30;;;;;;;1999.90;999.90;;;;;;;20.81;100.00;94976.38;5097480;28;20187;-61
2022/06/19 01:30:51;;;;;;;1999.90;999.90;;;;;;;20.62;100.00;94970.28;5115506;28;20197;-61
2022/06/19 01:33:22;;;;;;;1999.90;999.90;;;;;;;20.59;100.00;94965.66;5114354;28;20255;-66
2022/06/19 01:35:50;;;;;;;1999.90;999.90;;;;;;;20.55;100.00;94965.09;5097016;28;20194;-66
2022/06/19 01:38:19;;;;;;;1999.90;999.90;;;;;;;20.61;100.00;94954.84;5096488;28;20216;-67
2022/06/19 01:40:51;;;;;;;1999.90;999.90;;;;;;;20.60;100.00;94949.75;5113710;28;20183;-69
2022/06/19 01:43:17;;;;;;;1999.90;999.90;;;;;;;20.59;100.00;94943.47;5114128;28;20188;-64
2022/06/19 01:45:48;;;;;;;1999.90;999.90;;;;;;;20.53;100.00;94928.72;5096763;28;20195;-55
2022/06/19 01:48:15;;;;;;;1999.90;999.90;;;;;;;20.55;100.00;94923.47;5096724;28;20230;-62
2022/06/19 01:50:42;;;;;;;1999.90;999.90;;;;;;;20.56;100.00;94922.22;5113672;28;20227;-63
2022/06/19 01:53:16;;;;;;;1999.90;999.90;;;;;;;20.61;100.00;94918.75;5114144;28;20184;-63
2022/06/19 01:55:41;;;;;;;1999.90;999.90;;;;;;;20.51;100.00;94903.47;5096629;28;20195;-63
2022/06/19 01:58:08;;;;;;;1999.90;999.90;;;;;;;20.41;100.00;94896.50;5112427;28;20187;-63
2022/06/19 02:00:36;;;;;;;1999.90;999.90;;;;;;;20.39;100.00;94892.66;5096369;28;20188;-63
2022/06/19 02:03:08;;;;;;;1999.90;999.90;;;;;;;20.34;100.00;94883.00;5096221;28;20195;-64
2022/06/19 02:05:34;;;;;;;1999.90;999.90;;;;;;;20.19;100.00;94882.25;5113673;28;20211;-58
2022/06/19 02:07:59;;;;;;;1999.90;999.90;;;;;;;20.19;100.00;94873.91;5096249;28;20203;-57
2022/06/19 02:10:26;;;;;;;1999.90;999.90;;;;;;;20.09;100.00;94866.91;5113325;28;20198;-58
2022/06/19 02:12:52;;;;;;;1999.90;999.90;;;;;;;19.99;100.00;94871.00;5096190;28;20307;-58
2022/06/19 02:15:18;;;;;;;1999.90;999.90;;;;;;;19.98;100.00;94866.69;5113248;28;20309;-58
2022/06/19 02:17:49;;;;;;;1999.90;999.90;;;;;;;19.94;100.00;94854.25;5114143;28;20187;-59
2022/06/19 02:20:16;;;;;;;1999.90;999.90;;;;;;;19.85;100.00;94849.56;5113719;28;20215;-64
2022/06/19 02:22:42;;;;;;;1999.90;999.90;;;;;;;19.84;100.00;94836.94;5095997;28;20202;-66
2022/06/19 02:25:08;;;;;;;1999.90;999.90;;;;;;;19.79;100.00;94829.31;5113088;28;20179;-63
2022/06/19 02:27:34;;;;;;;1999.90;999.90;;;;;;;19.69;100.00;94816.78;5096017;28;20286;-64
2022/06/19 02:30:01;;;;;;;1999.90;999.90;;;;;;;19.72;100.00;94824.13;5096067;28;20187;-63
2022/06/19 02:32:36;;;;;;;1999.90;999.90;;;;;;;19.68;100.00;94820.78;5096144;28;20219;-63
2022/06/19 02:35:02;;;;;;;1999.90;999.90;;;;;;;19.68;100.00;94818.03;5113472;28;20208;-64
2022/06/19 02:37:32;;;;;;;1999.90;999.90;;;;;;;19.50;100.00;94807.09;5095737;28;20191;-65
2022/06/19 02:40:22;;;;;;;1999.90;999.90;;;;;;;19.52;100.00;94801.84;5095818;28;20203;-54
2022/06/19 02:42:48;;;;;;;1999.90;999.90;;;;;;;19.47;100.00;94805.28;5112705;28;20195;-64
2022/06/19 02:45:16;;;;;;;1999.90;999.90;;;;;;;19.36;100.00;94788.44;5112878;28;20195;-63
2022/06/19 02:47:43;;;;;;;1999.90;999.90;;;;;;;19.39;100.00;94781.97;5096056;28;20211;-63
2022/06/19 02:50:13;;;;;;;1999.90;999.90;;;;;;;19.27;100.00;94772.66;5095551;28;20184;-63
2022/06/19 02:52:39;;;;;;;1999.90;999.90;;;;;;;19.28;100.00;94765.13;5113092;28;20183;-64
2022/06/19 02:55:05;;;;;;;1999.90;999.90;;;;;;;19.23;100.00;94769.28;5112721;28;20184;-63
2022/06/19 02:57:31;;;;;;;1999.90;999.90;;;;;;;19.22;100.00;94761.44;5096076;28;20195;-61
2022/06/19 02:59:56;;;;;;;1999.90;999.90;;;;;;;19.18;100.00;94744.25;5112643;28;20271;-61
2022/06/19 03:02:22;;;;;;;1999.90;999.90;;;;;;;19.14;100.00;94751.97;5112816;28;20188;-62
2022/06/19 03:04:53;;;;;;;1999.90;999.90;;;;;;;19.06;100.00;94748.06;5095918;28;20206;-61
2022/06/19 03:07:18;;;;;;;1999.90;999.90;;;;;;;19.11;100.00;94750.16;5095731;28;20196;-61
2022/06/19 03:09:44;;;;;;;1999.90;999.90;;;;;;;19.19;100.00;94748.56;5098415;28;20196;-62
2022/06/19 03:12:10;;;;;;;1999.90;999.90;;;;;;;19.17;100.00;94749.03;5116601;28;20256;-62
2022/06/19 03:14:36;;;;;;;1999.90;999.90;;;;;;;19.11;100.00;94747.41;5115697;28;20198;-62
2022/06/19 03:17:01;;;;;;;1999.90;999.90;;;;;;;19.17;100.00;94759.34;5116046;28;20192;-58
2022/06/19 03:19:27;;;;;;;1999.90;999.90;;;;;;;19.23;100.00;94763.00;5116212;28;20191;-60
2022/06/19 03:21:52;;;;;;;1999.90;999.90;;;;;;;19.28;100.00;94776.22;5116022;28;20190;-60
2022/06/19 03:24:18;;;;;;;1999.90;999.90;;;;;;;19.27;100.00;94785.75;5115694;28;20193;-61
2022/06/19 03:26:43;;;;;;;1999.90;999.90;;;;;;;19.27;100.00;94780.97;5098775;28;20246;-61
2022/06/19 03:29:10;;;;;;;1999.90;999.90;;;;;;;19.32;100.00;94794.19;5115842;28;20187;-60
2022/06/19 03:31:35;;;;;;;1999.90;999.90;;;;;;;19.39;100.00;94787.50;5115838;28;20184;-61
2022/06/19 03:34:01;;;;;;;1999.90;999.90;;;;;;;19.41;100.00;94794.09;5098738;28;20187;-61
2022/06/19 03:36:26;;;;;;;1999.90;999.90;;;;;;;19.45;100.00;94788.38;5115767;28;20187;-58
2022/06/19 03:38:51;;;;;;;1999.90;999.90;;;;;;;19.51;100.00;94794.03;5098836;28;20191;-66
2022/06/19 03:41:17;;;;;;;1999.90;999.90;;;;;;;19.68;100.00;94793.09;5115999;28;20217;-65
2022/06/19 03:43:43;;;;;;;1999.90;999.90;;;;;;;19.84;100.00;94800.91;5115787;28;20188;-62
2022/06/19 03:46:14;;;;;;;1999.90;999.90;;;;;;;20.15;100.00;94819.88;5115835;28;20196;-62
2022/06/19 03:48:42;;;;;;;1999.90;999.90;;;;;;;20.23;100.00;94827.34;5115806;28;20204;-63
2022/06/19 03:51:08;;;;;;;1999.90;999.90;;;;;;;20.39;100.00;94829.63;5115735;28;20188;-63
2022/06/19 03:53:34;;;;;;;1999.90;999.90;;;;;;;20.54;100.00;94835.91;5098580;28;20191;-64
2022/06/19 03:56:00;;;;;;;1999.90;999.90;;;;;;;20.58;100.00;94830.91;5098508;28;20196;-64
2022/06/19 03:58:45;;;;;;;1999.90;999.90;;;;;;;20.66;100.00;94832.06;5098325;28;20188;-65
2022/06/19 04:01:21;;;;;;;1999.90;999.90;;;;;;;20.92;100.00;94843.28;5115343;28;20184;-64
2022/06/19 04:03:49;;;;;;;1999.90;999.90;;;;;;;21.01;100.00;94840.44;5098190;28;20187;-64
2022/06/19 04:06:16;;;;;;;1999.90;999.90;;;;;;;21.10;100.00;94843.06;5098539;28;20233;-64
2022/06/19 04:08:44;;;;;;;1999.90;999.90;;;;;;;21.21;100.00;94848.75;5098205;28;20291;-65
2022/06/19 04:11:10;;;;;;;1999.90;999.90;;;;;;;21.32;100.00;94846.91;5115239;28;20207;-60
2022/06/19 04:13:36;;;;;;;1999.90;999.90;;;;;;;21.28;100.00;94837.25;5098018;28;20195;-58
2022/06/19 04:16:03;;;;;;;1999.90;999.90;;;;;;;21.56;100.00;94839.09;5098106;28;20191;-58
2022/06/19 04:18:29;;;;;;;1999.90;999.90;;;;;;;21.96;100.00;94852.22;5098039;28;20192;-58
2022/06/19 04:20:56;;;;;;;1999.90;999.90;;;;;;;22.43;100.00;94851.63;5114203;28;20240;-58
2022/06/19 04:23:22;;;;;;;1999.90;999.90;;;;;;;22.71;100.00;94851.88;5097909;28;20180;-58
2022/06/19 04:25:48;;;;;;;1999.90;999.90;;;;;;;22.93;99.43;94852.03;5097885;28;20214;-58
2022/06/19 04:28:14;;;;;;;1999.90;999.90;;;;;;;23.21;96.73;94856.59;5098191;28;20211;-57
2022/06/19 04:30:46;;;;;;;1999.90;999.90;;;;;;;23.43;95.15;94859.50;5097921;28;20176;-61
2022/06/19 04:33:12;;;;;;;1999.90;999.90;;;;;;;23.89;92.31;94861.94;5097793;28;20192;-57
2022/06/19 04:35:38;;;;;;;1999.90;999.90;;;;;;;24.15;89.54;94862.56;5097515;28;20184;-55
2022/06/19 04:38:03;;;;;;;1999.90;999.90;;;;;;;24.44;88.23;94870.47;5115068;28;20208;-55
2022/06/19 04:40:28;;;;;;;1999.90;999.90;;;;;;;24.73;85.58;94878.41;5114673;28;20199;-56
2022/06/19 04:42:54;;;;;;;1999.90;999.90;;;;;;;25.06;84.23;94878.38;5114853;28;20197;-56
2022/06/19 04:45:19;;;;;;;1999.90;999.90;;;;;;;25.28;83.25;94884.69;5097772;28;20183;-56
2022/06/19 04:47:45;;;;;;;1999.90;999.90;;;;;;;25.79;80.23;94890.94;5114544;28;20207;-64
2022/06/19 04:50:10;;;;;;;1999.90;999.90;;;;;;;25.89;78.91;94887.31;5114556;28;20323;-64
2022/06/19 04:52:35;;;;;;;1999.90;999.90;;;;;;;25.94;78.53;94900.53;5097718;28;20222;-64
2022/06/19 04:55:01;;;;;;;1999.90;999.90;;;;;;;26.15;76.79;94893.31;5114479;28;20190;-63
2022/06/19 04:57:26;;;;;;;1999.90;999.90;;;;;;;26.17;76.81;94890.78;5114581;28;20198;-64
2022/06/19 04:59:51;;;;;;;1999.90;999.90;;;;;;;26.35;77.42;94890.16;5114336;28;20179;-65
2022/06/19 05:02:17;;;;;;;1999.90;999.90;;;;;;;26.53;75.87;94894.38;5115041;28;20225;-64
2022/06/19 05:04:42;;;;;;;1999.90;999.90;;;;;;;26.71;76.41;94899.38;5114291;28;20180;-65
2022/06/19 05:07:07;;;;;;;1999.90;999.90;;;;;;;27.43;73.30;94891.88;5114177;28;20207;-66
2022/06/19 05:09:33;;;;;;;1999.90;999.90;;;;;;;27.87;71.47;94902.66;5114217;28;20259;-64
2022/06/19 05:11:58;;;;;;;1999.90;999.90;;;;;;;28.37;69.70;94898.47;5114778;28;20191;-63
2022/06/19 05:14:23;;;;;;;1999.90;999.90;;;;;;;28.87;66.95;94907.72;5114254;28;20201;-64
2022/06/19 05:16:49;;;;;;;1999.90;999.90;;;;;;;29.57;62.71;94911.94;5114446;28;20269;-62
2022/06/19 05:19:15;;;;;;;1999.90;999.90;;;;;;;29.82;60.84;94907.66;5114580;28;20206;-62
2022/06/19 05:21:40;;;;;;;1999.90;999.90;;;;;;;30.42;58.26;94903.63;5097638;28;20180;-62
2022/06/19 05:24:06;;;;;;;1999.90;999.90;;;;;;;30.74;55.92;94903.47;5114426;28;20180;-61
2022/06/19 05:26:34;;;;;;;1999.90;999.90;;;;;;;31.21;53.89;94906.94;5114354;28;20274;-63
2022/06/19 05:29:00;;;;;;;1999.90;999.90;;;;;;;31.36;53.35;94907.13;5096792;28;20187;-63
2022/06/19 05:31:27;;;;;;;1999.90;999.90;;;;;;;31.71;51.49;94900.03;5096653;28;20172;-63
2022/06/19 05:33:53;;;;;;;1999.90;999.90;;;;;;;31.87;51.97;94896.78;5114431;28;20274;-62
2022/06/19 05:36:19;;;;;;;1999.90;999.90;;;;;;;32.54;49.38;94901.31;5113953;28;20211;-62
2022/06/19 05:38:45;;;;;;;1999.90;999.90;;;;;;;32.78;47.38;94901.56;5096842;28;20291;-62
2022/06/19 05:41:11;;;;;;;1999.90;999.90;;;;;;;33.01;46.52;94896.78;5114289;28;20219;-61
2022/06/19 05:43:37;;;;;;;1999.90;999.90;;;;;;;32.67;45.91;94896.25;5096960;28;20311;-62
2022/06/19 05:46:10;;;;;;;1999.90;999.90;;;;;;;32.71;45.25;94891.00;5096700;28;20191;-57
2022/06/19 05:48:36;;;;;;;1999.90;999.90;;;;;;;32.29;46.49;94892.50;5096775;28;20253;-57
2022/06/19 05:51:09;;;;;;;1999.90;999.90;;;;;;;32.65;45.13;94893.25;5114721;28;20556;-56
2022/06/19 05:53:38;;;;;;;1999.90;999.90;;;;;;;33.38;43.78;94883.97;5114485;28;20183;-55
2022/06/19 05:56:04;;;;;;;1999.90;999.90;;;;;;;33.87;42.50;94886.44;5096332;28;20180;-57
2022/06/19 05:58:30;;;;;;;1999.90;999.90;;;;;;;34.13;41.62;94894.53;5096303;28;20176;-57
2022/06/19 06:00:55;;;;;;;1999.90;999.90;;;;;;;34.50;41.39;94890.84;5096246;28;20307;-64
2022/06/19 06:03:22;;;;;;;1999.90;999.90;;;;;;;34.29;41.44;94890.31;5113471;28;20187;-64
2022/06/19 06:05:48;;;;;;;1999.90;999.90;;;;;;;34.85;40.84;94898.28;5096399;28;20187;-63
2022/06/19 06:08:15;;;;;;;1999.90;999.90;;;;;;;35.48;39.63;94888.22;5096410;28;20211;-62
2022/06/19 06:10:41;;;;;;;1999.90;999.90;;;;;;;35.37;39.35;94886.63;5096762;28;20187;-61
2022/06/19 06:13:07;;;;;;;1999.90;999.90;;;;;;;35.65;38.80;94896.81;5114329;28;20176;-61
2022/06/19 06:15:33;;;;;;;1999.90;999.90;;;;;;;35.68;39.04;94892.78;5113727;28;20183;-61
2022/06/19 06:17:59;;;;;;;1999.90;999.90;;;;;;;36.05;38.39;94894.59;5113451;28;20179;-61
2022/06/19 06:20:25;;;;;;;1999.90;999.90;;;;;;;36.88;37.17;94900.09;5113336;28;20194;-62
2022/06/19 06:22:51;;;;;;;1999.90;999.90;;;;;;;36.84;36.82;94904.75;5096328;28;20175;-66
2022/06/19 06:25:19;;;;;;;1999.90;999.90;;;;;;;36.92;37.00;94894.72;5112891;28;20207;-65
2022/06/19 06:27:44;;;;;;;1999.90;999.90;;;;;;;37.07;35.44;94908.03;5096185;28;20210;-66
2022/06/19 06:30:11;;;;;;;1999.90;999.90;;;;;;;37.98;34.84;94911.75;5113984;28;20184;-66
2022/06/19 06:32:37;;;;;;;1999.90;999.90;;;;;;;38.08;33.38;94915.44;5096489;28;20190;-67
2022/06/19 06:35:03;;;;;;;1999.90;999.90;;;;;;;38.77;33.20;94913.56;5096032;28;20188;-66
2022/06/19 06:37:28;;;;;;;1999.90;999.90;;;;;;;39.30;31.82;94910.31;5112887;28;20241;-57
2022/06/19 06:39:53;;;;;;;1999.90;999.90;;;;;;;39.77;30.71;94919.38;5112995;28;20203;-58
2022/06/19 06:42:19;;;;;;;1999.90;999.90;;;;;;;40.03;29.58;94922.00;5113971;22;20229;-61
2022/06/19 06:44:47;;;;;;;1999.90;999.90;;;;;;;40.60;28.98;94915.16;5072084;28;20182;-61
2022/06/19 06:47:12;;;;;;;1999.90;999.90;;;;;;;40.42;28.33;94933.97;5072594;28;20209;-60
2022/06/19 06:49:37;;;;;;;1999.90;999.90;;;;;;;40.20;27.93;94924.59;5072483;28;20182;-61
2022/06/19 06:52:07;;;;;;;1999.90;999.90;;;;;;;39.98;27.91;94928.78;5072664;28;20181;-61
2022/06/19 06:54:35;;;;;;;1999.90;999.90;;;;;;;40.85;27.74;94915.44;5072334;28;20182;-60
2022/06/19 06:57:01;;;;;;;1999.90;999.90;;;;;;;40.55;27.26;94919.84;5072414;28;20193;-64
2022/06/19 06:59:26;;;;;;;1999.90;999.90;;;;;;;40.93;27.45;94913.09;5072509;28;20186;-63
2022/06/19 07:01:51;;;;;;;1999.90;999.90;;;;;;;40.61;27.92;94916.66;5072590;28;20185;-63
2022/06/19 07:04:17;;;;;;;1999.90;999.90;;;;;;;41.00;28.17;94912.13;5072503;28;20185;-65
2022/06/19 07:06:42;;;;;;;1999.90;999.90;;;;;;;40.76;27.79;94904.78;5072092;28;20185;-62
2022/06/19 07:09:08;;;;;;;1999.90;999.90;;;;;;;41.04;27.36;94915.28;5072075;28;20193;-64
2022/06/19 07:11:43;;;;;;;1999.90;999.90;;;;;;;41.45;27.20;94905.03;5055520;28;20178;-63
2022/06/19 07:14:09;;;;;;;1999.90;999.90;;;;;;;41.95;27.11;94910.34;5072310;28;20173;-60
2022/06/19 07:16:35;;;;;;;1999.90;999.90;;;;;;;41.86;27.34;94911.25;5072168;28;20189;-62
2022/06/19 07:19:00;;;;;;;1999.90;999.90;;;;;;;41.97;26.66;94908.34;5072139;28;20174;-62
2022/06/19 07:21:26;;;;;;;1999.90;999.90;;;;;;;42.15;26.90;94905.81;5055610;28;20303;-60
2022/06/19 07:23:51;;;;;;;1999.90;999.90;;;;;;;42.62;26.86;94901.50;5055645;28;20210;-60
2022/06/19 07:26:19;;;;;;;1999.90;999.90;;;;;;;42.89;26.54;94905.31;5072070;28;20178;-59
2022/06/19 07:28:46;;;;;;;1999.90;999.90;;;;;;;42.92;25.99;94909.81;5071812;28;20193;-59
2022/06/19 07:31:12;;;;;;;1999.90;999.90;;;;;;;43.36;26.05;94908.75;5055671;28;20253;-60
2022/06/19 07:33:37;;;;;;;1999.90;999.90;;;;;;;43.11;26.04;94903.72;5072125;28;20213;-64
2022/06/19 07:36:05;;;;;;;1999.90;999.90;;;;;;;43.53;25.61;94902.53;5072153;28;20247;-62
2022/06/19 07:38:30;;;;;;;1999.90;999.90;;;;;;;43.94;25.48;94904.13;5071926;28;20206;-62
2022/06/19 07:40:56;;;;;;;1999.90;999.90;;;;;;;43.76;25.70;94900.22;5071737;28;20216;-63
2022/06/19 07:43:21;;;;;;;1999.90;999.90;;;;;;;44.23;25.61;94898.50;5054917;28;20251;-63
2022/06/19 07:45:47;;;;;;;1999.90;999.90;;;;;;;44.68;24.74;94897.94;5055843;28;20186;-61
2022/06/19 07:50:56;;;;;;;1999.90;999.90;;;;;;;44.37;25.58;94893.47;5055953;28;20180;-61
2022/06/19 07:53:22;;;;;;;1999.90;999.90;;;;;;;45.03;24.99;94899.03;5071430;28;20177;-61
2022/06/19 07:55:47;;;;;;;1999.90;999.90;;;;;;;45.33;24.38;94891.13;5071336;28;20216;-60
2022/06/19 07:58:13;;;;;;;1999.90;999.90;;;;;;;45.56;24.30;94890.78;5071650;28;20280;-59
2022/06/19 08:00:39;;;;;;;1999.90;999.90;;;;;;;45.64;23.85;94879.59;5054718;28;20240;-62
2022/06/19 08:03:05;;;;;;;1999.90;999.90;;;;;;;45.15;23.67;94888.09;5071411;28;20188;-61
2022/06/19 08:05:33;;;;;;;1999.90;999.90;;;;;;;45.29;23.50;94890.91;5054751;28;20186;-59
2022/06/19 08:07:59;;;;;;;1999.90;999.90;;;;;;;45.39;22.44;94895.06;5055888;28;20207;-60
2022/06/19 08:10:29;;;;;;;1999.90;999.90;;;;;;;45.24;22.72;94892.09;5071143;28;20177;-65
2022/06/19 08:12:55;;;;;;;1999.90;999.90;;;;;;;45.67;22.39;94895.63;5071440;28;20189;-64
2022/06/19 08:15:21;;;;;;;1999.90;999.90;;;;;;;45.97;21.60;94897.06;5071372;28;20181;-65
2022/06/19 08:17:46;;;;;;;1999.90;999.90;;;;;;;45.47;22.60;94900.47;5070989;28;20193;-65
2022/06/19 08:20:13;;;;;;;1999.90;999.90;;;;;;;45.50;22.64;94905.69;5070836;28;20181;-65
2022/06/19 08:22:39;;;;;;;1999.90;999.90;;;;;;;45.44;22.66;94910.44;5070910;28;20276;-67
2022/06/19 08:25:06;;;;;;;1999.90;999.90;;;;;;;45.35;22.63;94908.53;5054658;28;20236;-65
2022/06/19 08:27:31;;;;;;;1999.90;999.90;;;;;;;46.01;21.76;94900.13;5070746;28;20201;-65
2022/06/19 08:29:57;;;;;;;1999.90;999.90;;;;;;;46.00;21.88;94904.44;5071005;28;20177;-65
2022/06/19 08:32:22;;;;;;;1999.90;999.90;;;;;;;46.16;22.34;94900.16;5070765;28;20187;-60
2022/06/19 08:34:47;;;;;;;1999.90;999.90;;;;;;;46.16;22.62;94890.75;5070827;28;20226;-60
2022/06/19 08:37:14;;;;;;;1999.90;999.90;;;;;;;45.80;22.45;94904.25;5070812;28;20193;-60
2022/06/19 08:39:40;;;;;;;1999.90;999.90;;;;;;;45.78;22.19;94900.53;5054089;28;20263;-61
2022/06/19 08:42:44;;;;;;;1999.90;999.90;;;;;;;46.48;21.70;94895.09;5071070;28;20189;-59
2022/06/19 08:45:32;;;;;;;1999.90;999.90;;;;;;;45.32;22.49;94901.16;5071363;28;20242;-59
2022/06/19 08:48:32;;;;;;;1999.90;999.90;;;;;;;45.01;22.92;94895.28;5070881;28;20217;-67
2022/06/19 08:51:09;;;;;;;1999.90;999.90;;;;;;;45.23;22.71;94890.63;4999940;28;20224;-62
2022/06/19 08:53:52;;;;;;;1999.90;999.90;;;;;;;44.68;22.64;94903.69;5070720;28;20191;-61
2022/06/19 08:56:37;;;;;;;1999.90;999.90;;;;;;;45.16;21.77;94894.59;5071444;28;20204;-61
2022/06/19 08:59:16;;;;;;;1999.90;999.90;;;;;;;45.14;22.29;94897.41;5070619;28;20189;-62
2022/06/19 09:02:12;;;;;;;1999.90;999.90;;;;;;;45.40;22.12;94892.91;5070905;28;20185;-62
2022/06/19 09:08:17;;;;;;;1999.90;999.90;;;;;;;45.09;22.44;94896.44;5054421;28;20208;-66
2022/06/19 09:11:03;;;;;;;1999.90;999.90;;;;;;;45.74;21.50;94894.56;4967799;28;20196;-65
2022/06/19 09:13:35;;;;;;;1999.90;999.90;;;;;;;45.61;22.41;94898.22;5070762;28;20212;-65
2022/06/19 09:16:10;;;;;;;1999.90;999.90;;;;;;;45.92;22.12;94886.72;5070272;28;20199;-65
2022/06/19 09:18:36;;;;;;;1999.90;999.90;;;;;;;45.08;22.80;94899.97;5070781;28;20177;-65
2022/06/19 09:21:10;;;;;;;1999.90;999.90;;;;;;;45.30;22.58;94898.16;5070354;28;20194;-65
2022/06/19 09:24:06;;;;;;;1999.90;999.90;;;;;;;45.34;21.65;94898.41;5069942;28;20185;-62
2022/06/19 09:26:39;;;;;;;1999.90;999.90;;;;;;;45.98;21.71;94898.56;5069961;28;20276;-61
2022/06/19 09:29:05;;;;;;;1999.90;999.90;;;;;;;46.46;21.25;94892.13;5053720;28;20182;-61
2022/06/19 09:32:03;;;;;;;1999.90;999.90;;;;;;;46.02;21.57;94896.59;5069986;28;20191;-61
2022/06/19 09:34:40;;;;;;;1999.90;999.90;;;;;;;46.31;20.94;94892.88;5002165;28;20193;-61
2022/06/19 09:37:45;;;;;;;1999.90;999.90;;;;;;;46.00;21.56;94887.09;5053175;28;20193;-61
2022/06/19 09:40:26;;;;;;;1999.90;999.90;;;;;;;46.32;21.39;94883.53;5037551;28;20189;-61
2022/06/19 09:42:56;;;;;;;1999.90;999.90;;;;;;;45.90;21.59;94883.72;5069781;28;20197;-62
2022/06/19 09:45:23;;;;;;;1999.90;999.90;;;;;;;45.67;22.31;94887.72;5069944;28;20177;-62
2022/06/19 09:48:21;;;;;;;1999.90;999.90;;;;;;;46.28;21.55;94894.91;5069502;28;20242;-62
2022/06/19 09:50:59;;;;;;;1999.90;999.90;;;;;;;46.15;21.59;94880.56;5069865;28;20196;-61
2022/06/19 09:53:44;;;;;;;1999.90;999.90;;;;;;;46.01;21.74;94883.53;5070376;28;20250;-61
2022/06/19 09:56:21;;;;;;;1999.90;999.90;;;;;;;45.94;22.52;94883.91;5069804;28;20185;-61
2022/06/19 09:58:53;;;;;;;1999.90;999.90;;;;;;;46.48;22.44;94883.50;5069960;28;20288;-61
2022/06/19 10:01:20;;;;;;;1999.90;999.90;;;;;;;46.03;21.91;94877.13;5053023;28;20268;-61
2022/06/19 10:03:59;;;;;;;1999.90;999.90;;;;;;;46.89;21.38;94878.81;5069673;28;20182;-62
2022/06/19 10:06:40;;;;;;;1999.90;999.90;;;;;;;46.90;20.90;94876.69;5069694;28;20247;-62
2022/06/19 10:09:16;;;;;;;1999.90;999.90;;;;;;;46.97;21.66;94866.84;5036343;28;20192;-62
2022/06/19 10:11:42;;;;;;;1999.90;999.90;;;;;;;47.00;21.37;94868.41;5070250;28;20201;-63
2022/06/19 10:14:27;;;;;;;1999.90;999.90;;;;;;;46.76;21.09;94868.13;5069256;28;20357;-62
2022/06/19 10:17:00;;;;;;;1999.90;999.90;;;;;;;46.06;21.52;94862.13;5052734;28;20185;-62
2022/06/19 10:19:41;;;;;;;1999.90;999.90;;;;;;;46.17;22.39;94855.38;5068130;28;20185;-69
2022/06/19 10:22:14;;;;;;;1999.90;999.90;;;;;;;46.02;22.31;94846.72;5069325;28;20231;-64
2022/06/19 10:25:33;;;;;;;1999.90;999.90;;;;;;;45.72;22.75;94839.56;5053888;28;20188;-65
2022/06/19 10:28:10;;;;;;;1999.90;999.90;;;;;;;46.02;21.95;94852.50;5012137;28;20210;-65
2022/06/19 10:30:54;;;;;;;1999.90;999.90;;;;;;;45.20;22.46;94845.72;5044323;28;20236;-64
2022/06/19 10:33:19;;;;;;;1999.90;999.90;;;;;;;44.11;23.52;94848.84;5069662;28;20186;-65
2022/06/19 10:35:55;;;;;;;1999.90;999.90;;;;;;;44.43;23.87;94850.53;5069831;28;20219;-65
2022/06/19 10:38:50;;;;;;;1999.90;999.90;;;;;;;44.08;24.35;94838.59;5069540;28;20209;-65
2022/06/19 10:44:56;;;;;;;1999.90;999.90;;;;;;;45.76;22.34;94834.00;5053737;28;20199;-62
2022/06/19 10:47:49;;;;;;;1999.90;999.90;;;;;;;45.24;23.22;94843.78;5069217;28;20227;-62
2022/06/19 10:50:39;;;;;;;1999.90;999.90;;;;;;;45.96;22.83;94834.91;5068975;28;20196;-63
2022/06/19 10:53:25;;;;;;;1999.90;999.90;;;;;;;45.78;22.71;94836.97;5052520;28;20182;-63
2022/06/19 10:56:26;;;;;;;1999.90;999.90;;;;;;;45.14;24.02;94833.91;5068739;28;20239;-59
2022/06/19 10:58:52;;;;;;;1999.90;999.90;;;;;;;44.76;23.89;94824.09;4956827;28;20181;-59
2022/06/19 11:04:10;;;;;;;1999.90;999.90;;;;;;;45.17;23.62;94824.69;5053741;28;20243;-59
2022/06/19 11:06:47;;;;;;;1999.90;999.90;;;;;;;45.39;24.20;94819.22;5068964;28;20186;-59
2022/06/19 11:09:20;;;;;;;1999.90;999.90;;;;;;;45.35;23.29;94807.50;5069438;28;20202;-60
2022/06/19 11:11:50;;;;;;;1999.90;999.90;;;;;;;44.75;23.72;94816.09;5068766;28;20196;-60
2022/06/19 11:14:52;;;;;;;1999.90;999.90;;;;;;;44.60;23.45;94811.75;5051956;28;20189;-62
2022/06/19 11:17:40;;;;;;;1999.90;999.90;;;;;;;45.17;23.79;94821.78;5049947;28;20276;-59
2022/06/19 11:20:24;;;;;;;1999.90;999.90;;;;;;;44.98;23.66;94812.91;5052059;28;20360;-59